Time;durP1;ratioP1;P1;durP2;ratioP2;P2;SDS_P1;SDS_P2;PMS_P1;PMS_P2;Temp;Humidity;BMP_temperature;BMP_pressure;BME280_temperature;BME280_humidity;BME280_pressure;Samples;Min_cycle;Max_cycle;Signal;HPM_P1;HPM_P2
2022/01/26 00:07:42;;;;;;;102.07;40.90;;;3.30;99.90;;;;;;6159389;23;20029;-78
2022/01/26 00:10:08;;;;;;;102.13;41.00;;;3.30;99.90;;;;;;6159317;23;20464;-78
2022/01/26 00:12:33;;;;;;;100.03;38.72;;;3.30;99.90;;;;;;6158435;23;20071;-78
2022/01/26 00:14:59;;;;;;;97.20;38.30;;;3.90;99.90;;;;;;6159280;23;20033;-78
2022/01/26 00:17:25;;;;;;;100.72;42.00;;;3.60;99.90;;;;;;6158555;23;20052;-78
2022/01/26 00:19:57;;;;;;;102.07;38.92;;;3.80;99.90;;;;;;6159715;23;20072;-78
2022/01/26 00:22:59;;;;;;;104.15;40.22;;;3.90;99.90;;;;;;6185948;23;20020;-78
2022/01/26 00:28:07;;;;;;;117.13;41.83;;;3.30;99.90;;;;;;6159189;23;20029;-78
2022/01/26 00:38:41;;;;;;;100.93;38.22;;;3.30;99.90;;;;;;6185038;23;20056;-79
2022/01/26 00:41:12;;;;;;;100.30;39.65;;;3.30;99.90;;;;;;6159144;23;20032;-78
2022/01/26 00:43:44;;;;;;;107.03;41.22;;;3.30;99.90;;;;;;6160006;23;20027;-78
2022/01/26 00:46:10;;;;;;;98.38;38.55;;;3.30;99.90;;;;;;6160222;23;20021;-79
2022/01/26 00:48:38;;;;;;;99.20;39.13;;;3.40;99.90;;;;;;6161120;23;20028;-78
2022/01/26 00:51:06;;;;;;;105.60;38.35;;;3.20;99.90;;;;;;6187211;23;20021;-78
2022/01/26 00:53:36;;;;;;;110.22;42.80;;;3.30;99.90;;;;;;6159741;23;20480;-78
2022/01/26 00:56:04;;;;;;;108.70;39.97;;;3.30;99.90;;;;;;6187642;23;20099;-79
2022/01/26 00:58:30;;;;;;;112.95;41.75;;;3.20;99.90;;;;;;6187203;23;20115;-78
2022/01/26 01:00:58;;;;;;;108.25;40.20;;;3.50;99.90;;;;;;6159893;23;20088;-78
2022/01/26 01:03:24;;;;;;;104.90;39.22;;;3.20;99.90;;;;;;6187757;23;20056;-78
2022/01/26 01:05:57;;;;;;;110.03;41.90;;;3.20;99.90;;;;;;6160730;23;20060;-78
2022/01/26 01:08:24;;;;;;;102.38;39.50;;;3.30;99.90;;;;;;6160352;23;20021;-78
2022/01/26 01:10:52;;;;;;;113.28;41.60;;;3.30;99.90;;;;;;6186914;23;20389;-79
2022/01/26 01:13:22;;;;;;;106.55;39.75;;;3.20;99.90;;;;;;6187053;23;20342;-78
2022/01/26 01:15:50;;;;;;;99.82;37.33;;;3.20;99.90;;;;;;6159896;23;20442;-78
2022/01/26 01:18:24;;;;;;;105.25;39.95;;;3.20;99.90;;;;;;6160813;23;20480;-78
2022/01/26 01:34:07;;;;;;;105.85;38.30;;;3.20;99.90;;;;;;6186933;23;20024;-78
2022/01/26 01:36:37;;;;;;;100.88;37.25;;;3.20;99.90;;;;;;6159604;23;20023;-79
2022/01/26 01:39:09;;;;;;;106.40;40.45;;;3.20;99.90;;;;;;6186913;23;20021;-78
2022/01/26 01:41:37;;;;;;;111.28;40.63;;;3.20;99.90;;;;;;6187322;23;20395;-79
2022/01/26 01:44:04;;;;;;;106.72;39.60;;;3.20;99.90;;;;;;6185829;23;20072;-78
2022/01/26 01:46:30;;;;;;;110.55;38.63;;;3.20;99.90;;;;;;6187224;23;20088;-78
2022/01/26 01:48:56;;;;;;;114.63;40.67;;;3.20;99.90;;;;;;6159460;23;20033;-79
2022/01/26 01:51:29;;;;;;;108.38;39.80;;;3.20;99.90;;;;;;6187202;23;20136;-78
2022/01/26 01:53:55;;;;;;;103.78;38.60;;;3.80;99.90;;;;;;6186764;23;20096;-78
2022/01/26 01:56:24;;;;;;;112.88;40.17;;;3.20;99.90;;;;;;6159372;23;20048;-79
2022/01/26 01:58:50;;;;;;;116.93;43.28;;;3.60;99.90;;;;;;6186434;23;20463;-79
2022/01/26 02:01:16;;;;;;;108.35;40.97;;;3.20;99.90;;;;;;6186670;23;20457;-79
2022/01/26 02:03:42;;;;;;;109.25;40.00;;;3.20;99.90;;;;;;6159406;23;20031;-78
2022/01/26 02:06:08;;;;;;;115.45;41.85;;;3.30;99.90;;;;;;6160479;23;20013;-79
2022/01/26 02:08:34;;;;;;;106.68;39.65;;;3.20;99.90;;;;;;6186978;23;20013;-79
2022/01/26 02:11:00;;;;;;;107.03;39.25;;;3.20;99.90;;;;;;6159021;23;20453;-79
2022/01/26 02:13:31;;;;;;;96.65;38.47;;;3.20;99.90;;;;;;6186669;23;20489;-79
2022/01/26 02:16:08;;;;;;;102.60;40.47;;;3.60;99.90;;;;;;6187023;23;20306;-78
2022/01/26 02:51:46;;;;;;;74.75;27.75;;;3.10;99.90;;;;;;6159878;23;20100;-78
2022/01/26 03:04:30;;;;;;;89.20;35.67;;;4.10;99.90;;;;;;6186539;23;20079;-78
2022/01/26 03:07:09;;;;;;;87.47;36.20;;;3.30;99.90;;;;;;6158500;23;20025;-78
2022/01/26 03:09:44;;;;;;;93.28;35.22;;;3.10;99.90;;;;;;6186236;23;20068;-78
2022/01/26 03:12:12;;;;;;;82.25;33.88;;;3.30;99.90;;;;;;6186324;23;20017;-78
2022/01/26 03:20:11;;;;;;;80.13;34.50;;;3.70;99.90;;;;;;6111108;23;20017;-79
2022/01/26 03:28:20;;;;;;;80.13;35.47;;;3.10;99.90;;;;;;6185280;23;20021;-79
2022/01/26 03:35:54;;;;;;;84.07;34.78;;;3.20;99.90;;;;;;6158578;23;20087;-79
2022/01/26 03:38:27;;;;;;;72.50;33.25;;;3.20;99.90;;;;;;6159636;23;20021;-79
2022/01/26 03:41:10;;;;;;;78.93;34.50;;;3.70;99.90;;;;;;6186181;23;20019;-79
2022/01/26 03:43:36;;;;;;;82.30;33.47;;;3.20;99.90;;;;;;6185292;23;20013;-79
2022/01/26 03:46:02;;;;;;;77.93;32.97;;;3.30;99.90;;;;;;6159462;23;20481;-79
2022/01/26 03:48:27;;;;;;;69.38;32.45;;;3.10;99.90;;;;;;6158515;23;20024;-79
2022/01/26 03:50:54;;;;;;;77.35;35.00;;;3.10;99.90;;;;;;6185804;23;20021;-79
2022/01/26 03:53:19;;;;;;;77.80;34.08;;;3.20;99.90;;;;;;6159808;23;20013;-79
2022/01/26 03:55:45;;;;;;;79.18;33.75;;;3.90;99.90;;;;;;6185179;23;20089;-79
2022/01/26 03:58:11;;;;;;;77.20;33.92;;;3.20;99.90;;;;;;6185961;23;20017;-79
2022/01/26 04:00:36;;;;;;;73.40;32.53;;;3.20;99.90;;;;;;6185631;23;20025;-78
2022/01/26 04:03:03;;;;;;;74.70;32.33;;;3.10;99.90;;;;;;6184916;23;20021;-79
2022/01/26 04:05:29;;;;;;;69.90;31.42;;;3.10;99.90;;;;;;6186092;23;20028;-79
2022/01/26 04:08:01;;;;;;;74.53;32.70;;;3.10;99.90;;;;;;6185419;23;20330;-79
2022/01/26 04:10:41;;;;;;;82.22;33.92;;;3.10;99.90;;;;;;6184622;23;20013;-79
2022/01/26 04:13:07;;;;;;;67.70;30.00;;;3.10;99.90;;;;;;6185369;23;20017;-79
2022/01/26 04:15:35;;;;;;;71.38;30.55;;;3.10;99.90;;;;;;6159434;23;20036;-79
2022/01/26 04:18:03;;;;;;;80.82;31.73;;;3.10;99.90;;;;;;6159785;23;20017;-79
2022/01/26 04:20:34;;;;;;;68.80;30.90;;;3.60;99.90;;;;;;6188070;23;20025;-79
2022/01/26 04:25:36;;;;;;;70.80;30.90;;;3.10;99.90;;;;;;6187162;23;20025;-79
2022/01/26 04:28:07;;;;;;;72.57;30.52;;;3.50;99.90;;;;;;6160940;23;20021;-79
2022/01/26 04:30:33;;;;;;;77.00;31.40;;;3.30;99.90;;;;;;6160316;23;20501;-79
2022/01/26 04:33:00;;;;;;;74.18;30.83;;;3.20;99.90;;;;;;6161217;23;20140;-79
2022/01/26 04:35:25;;;;;;;71.50;31.48;;;3.60;99.90;;;;;;6187733;23;20040;-79
2022/01/26 04:38:32;;;;;;;67.07;29.38;;;3.00;99.90;;;;;;6160434;23;20445;-79
2022/01/26 04:43:32;;;;;;;83.95;31.80;;;3.00;99.90;;;;;;6161273;23;20441;-79
2022/01/26 04:45:57;;;;;;;74.22;30.23;;;3.00;99.90;;;;;;6187366;23;20017;-79
2022/01/26 04:48:26;;;;;;;68.43;29.17;;;3.00;99.90;;;;;;6187381;23;20505;-79
2022/01/26 04:50:52;;;;;;;71.20;30.52;;;3.10;99.90;;;;;;6187230;23;20445;-78
2022/01/26 04:53:19;;;;;;;78.63;30.98;;;3.20;99.90;;;;;;6160035;23;20017;-78
2022/01/26 04:55:44;;;;;;;71.72;30.77;;;3.00;99.90;;;;;;6161065;23;20079;-79
2022/01/26 04:58:10;;;;;;;75.40;31.15;;;3.00;99.90;;;;;;6187808;23;20445;-79
2022/01/26 05:00:36;;;;;;;70.53;29.40;;;3.00;99.90;;;;;;6186698;23;20049;-79
2022/01/26 05:03:02;;;;;;;71.97;31.42;;;2.90;99.90;;;;;;6187572;23;20017;-79
2022/01/26 05:05:28;;;;;;;72.38;30.58;;;3.30;99.90;;;;;;6161113;23;20028;-79
2022/01/26 05:07:54;;;;;;;71.13;30.88;;;2.90;99.90;;;;;;6186609;23;20028;-79
2022/01/26 05:10:19;;;;;;;72.97;30.88;;;3.60;99.90;;;;;;6186929;23;20056;-79
2022/01/26 05:12:45;;;;;;;70.07;29.02;;;2.90;99.90;;;;;;6186196;23;20071;-79
2022/01/26 05:15:11;;;;;;;77.07;30.98;;;3.80;99.90;;;;;;6160315;23;20020;-79
2022/01/26 05:17:38;;;;;;;69.80;29.35;;;2.90;99.90;;;;;;6187582;23;20017;-79
2022/01/26 05:20:09;;;;;;;69.35;29.42;;;2.90;99.90;;;;;;6186055;23;20516;-79
2022/01/26 05:22:36;;;;;;;72.55;29.67;;;2.90;99.90;;;;;;6187508;23;20014;-79
2022/01/26 05:25:03;;;;;;;75.03;28.92;;;2.90;99.90;;;;;;6160608;23;20464;-79
2022/01/26 05:27:29;;;;;;;68.63;29.70;;;2.90;99.90;;;;;;6159740;23;20072;-79
2022/01/26 05:29:55;;;;;;;74.25;30.92;;;3.20;99.90;;;;;;6186976;23;20021;-79
2022/01/26 05:32:20;;;;;;;62.08;28.85;;;2.90;99.90;;;;;;6187290;23;20017;-79
2022/01/26 05:34:46;;;;;;;74.20;29.70;;;2.90;99.90;;;;;;6159692;23;20441;-79
2022/01/26 05:37:12;;;;;;;75.55;30.80;;;2.90;99.90;;;;;;6186999;23;20017;-78
2022/01/26 05:39:38;;;;;;;65.05;29.35;;;3.60;99.90;;;;;;6187240;23;20067;-79
2022/01/26 05:42:06;;;;;;;77.85;30.55;;;2.90;99.90;;;;;;6186018;23;20029;-79
2022/01/26 05:44:32;;;;;;;64.43;29.58;;;2.80;99.90;;;;;;6160486;23;20425;-78
2022/01/26 05:46:58;;;;;;;68.60;28.77;;;3.70;99.90;;;;;;6187286;23;20021;-78
2022/01/26 05:49:25;;;;;;;72.65;29.02;;;2.90;99.90;;;;;;6186266;23;20341;-78
2022/01/26 05:51:51;;;;;;;65.45;29.15;;;2.80;99.90;;;;;;6160371;23;20013;-79
2022/01/26 05:54:17;;;;;;;66.78;29.20;;;2.90;99.90;;;;;;6160222;23;20021;-79
2022/01/26 05:56:44;;;;;;;61.58;27.73;;;2.80;99.90;;;;;;6186190;23;20020;-79
2022/01/26 05:59:11;;;;;;;74.30;29.77;;;2.90;99.90;;;;;;6160413;23;20021;-79
2022/01/26 06:01:37;;;;;;;68.22;28.75;;;2.80;99.90;;;;;;6186909;23;20028;-79
2022/01/26 06:04:03;;;;;;;69.85;29.83;;;3.00;99.90;;;;;;6185819;23;20024;-79
2022/01/26 06:06:29;;;;;;;74.05;30.90;;;2.90;99.90;;;;;;6160444;23;20025;-79
2022/01/26 06:08:54;;;;;;;68.97;29.45;;;3.70;99.90;;;;;;6160031;23;20052;-79
2022/01/26 06:11:20;;;;;;;69.97;29.55;;;2.80;99.90;;;;;;6185543;23;20021;-79
2022/01/26 06:13:46;;;;;;;78.00;30.80;;;2.80;99.90;;;;;;6186735;23;20028;-79
2022/01/26 06:16:12;;;;;;;74.18;30.38;;;2.80;99.90;;;;;;6185774;23;20013;-78
2022/01/26 06:18:37;;;;;;;70.72;30.65;;;2.80;99.90;;;;;;6160369;23;20017;-79
2022/01/26 06:21:03;;;;;;;70.95;30.17;;;2.80;99.90;;;;;;6186691;23;20117;-78
2022/01/26 06:23:29;;;;;;;65.70;29.80;;;2.90;99.90;;;;;;6185811;23;20021;-77
2022/01/26 06:25:57;;;;;;;66.95;31.38;;;2.80;99.90;;;;;;6186911;23;20333;-78
2022/01/26 06:28:26;;;;;;;77.85;33.92;;;2.90;99.90;;;;;;6186531;23;20067;-77
2022/01/26 06:30:56;;;;;;;77.50;32.85;;;2.90;99.90;;;;;;6159107;23;20021;-77
2022/01/26 06:33:22;;;;;;;70.95;32.50;;;2.90;99.90;;;;;;6186697;23;20112;-77
2022/01/26 06:35:48;;;;;;;73.05;32.67;;;2.90;99.90;;;;;;6186738;23;20481;-77
2022/01/26 06:38:15;;;;;;;76.85;31.67;;;2.90;99.90;;;;;;6159182;23;20017;-79
2022/01/26 06:40:40;;;;;;;77.07;32.70;;;3.10;99.90;;;;;;6159360;23;20052;-78
2022/01/26 06:43:11;;;;;;;77.18;32.72;;;3.10;99.90;;;;;;6159932;23;20025;-79
2022/01/26 06:45:45;;;;;;;73.93;34.17;;;2.90;99.90;;;;;;6159028;23;20056;-79
2022/01/26 06:48:39;;;;;;;75.53;33.50;;;3.60;99.90;;;;;;6186609;23;20028;-79
2022/01/26 06:50:59;;;;;;;76.43;34.10;;;2.90;99.90;;;;;;6185384;23;20025;-79
2022/01/26 06:53:25;;;;;;;76.63;33.80;;;2.90;99.90;;;;;;6185117;23;20516;-79
2022/01/26 06:55:51;;;;;;;70.15;32.40;;;2.90;99.90;;;;;;6186294;23;20059;-79
2022/01/26 06:58:17;;;;;;;78.75;34.13;;;2.90;99.90;;;;;;6158846;23;20047;-79
2022/01/26 07:00:43;;;;;;;77.13;32.70;;;2.90;99.90;;;;;;6159945;23;20453;-80
2022/01/26 07:03:09;;;;;;;72.82;31.50;;;2.90;99.90;;;;;;6186131;23;20025;-79
2022/01/26 07:05:35;;;;;;;76.95;33.83;;;2.90;99.90;;;;;;6185358;23;20028;-78
2022/01/26 07:08:02;;;;;;;77.78;33.40;;;2.90;99.90;;;;;;6186094;23;20025;-78
2022/01/26 07:10:28;;;;;;;77.28;34.45;;;2.90;99.90;;;;;;6186040;23;20171;-78
2022/01/26 07:12:54;;;;;;;81.22;34.13;;;2.90;99.90;;;;;;6185076;23;20021;-76
2022/01/26 07:23:40;;;;;;;82.00;35.77;;;3.60;99.90;;;;;;6159504;23;20032;-77
2022/01/26 07:26:06;;;;;;;92.38;36.03;;;2.90;99.90;;;;;;6159434;23;20035;-77
2022/01/26 07:28:36;;;;;;;85.68;36.55;;;2.90;99.90;;;;;;6183815;23;20433;-79
2022/01/26 07:31:02;;;;;;;88.75;36.83;;;3.00;99.90;;;;;;6185846;23;20020;-79
2022/01/26 07:33:28;;;;;;;85.40;38.28;;;3.00;99.90;;;;;;6184688;23;20013;-78
2022/01/26 07:35:54;;;;;;;91.32;39.78;;;3.00;99.90;;;;;;6186033;23;20088;-78
2022/01/26 07:38:20;;;;;;;93.80;40.95;;;3.00;99.90;;;;;;6183536;23;20508;-79
2022/01/26 07:40:45;;;;;;;93.07;41.63;;;3.00;99.90;;;;;;6184449;23;20486;-79
2022/01/26 07:43:11;;;;;;;98.78;41.92;;;3.00;99.90;;;;;;6185631;23;20425;-78
2022/01/26 07:45:37;;;;;;;97.18;42.38;;;3.10;99.90;;;;;;6185998;23;20084;-78
2022/01/26 07:48:03;;;;;;;98.43;44.33;;;3.20;99.90;;;;;;6184797;23;20437;-79
2022/01/26 07:50:29;;;;;;;104.82;46.38;;;3.10;99.90;;;;;;6185682;23;20017;-79
2022/01/26 07:52:55;;;;;;;102.40;45.30;;;3.10;99.90;;;;;;6159037;23;20021;-79
2022/01/26 07:55:23;;;;;;;106.45;47.47;;;3.10;99.90;;;;;;6184862;23;20021;-78
2022/01/26 07:57:50;;;;;;;96.25;43.63;;;3.50;99.90;;;;;;6185996;23;20345;-78
2022/01/26 08:00:17;;;;;;;104.18;43.90;;;3.10;99.90;;;;;;6185436;23;20017;-79
2022/01/26 08:02:43;;;;;;;100.82;44.70;;;3.20;99.90;;;;;;6184873;23;20091;-78
2022/01/26 08:05:10;;;;;;;108.60;45.42;;;3.20;99.90;;;;;;6159263;23;20060;-78
2022/01/26 08:07:36;;;;;;;105.38;46.15;;;3.80;99.90;;;;;;6185988;23;20017;-78
2022/01/26 08:10:04;;;;;;;104.28;44.83;;;3.80;99.90;;;;;;6153022;23;20051;-79
2022/01/26 08:12:30;;;;;;;97.40;45.65;;;3.20;99.90;;;;;;6156052;23;20026;-79
2022/01/26 08:14:55;;;;;;;115.80;47.25;;;3.20;99.90;;;;;;6154048;23;20060;-78
2022/01/26 08:17:21;;;;;;;107.13;46.75;;;3.20;99.90;;;;;;6153479;23;20024;-78
2022/01/26 08:19:51;;;;;;;107.22;45.58;;;3.20;99.90;;;;;;6155723;23;20403;-78
2022/01/26 08:22:19;;;;;;;110.35;45.80;;;3.20;99.90;;;;;;6154347;23;20079;-78
2022/01/26 08:24:46;;;;;;;111.00;47.20;;;3.50;99.90;;;;;;6153083;23;20017;-78
2022/01/26 08:27:14;;;;;;;109.88;45.50;;;3.50;99.90;;;;;;6155750;23;20013;-78
2022/01/26 08:29:43;;;;;;;110.97;47.08;;;3.60;99.90;;;;;;6155968;23;20018;-78
2022/01/26 08:32:10;;;;;;;99.60;43.85;;;3.50;99.90;;;;;;6156066;23;20036;-78
2022/01/26 08:34:35;;;;;;;96.95;43.15;;;3.40;99.90;;;;;;6155977;23;20336;-78
2022/01/26 08:37:03;;;;;;;100.28;44.13;;;3.40;99.90;;;;;;6155139;23;20088;-78
2022/01/26 08:39:29;;;;;;;87.30;41.50;;;3.50;99.90;;;;;;6154224;23;20084;-78
2022/01/26 08:41:55;;;;;;;100.55;44.70;;;3.50;99.90;;;;;;6155610;23;20390;-78
2022/01/26 08:44:21;;;;;;;93.68;42.85;;;3.50;99.90;;;;;;6153138;23;20022;-79
2022/01/26 08:46:48;;;;;;;94.00;44.15;;;3.60;99.90;;;;;;6155576;23;20096;-79
2022/01/26 08:49:14;;;;;;;93.90;42.10;;;3.60;99.90;;;;;;6154198;23;20028;-79
2022/01/26 08:51:40;;;;;;;94.07;42.50;;;3.70;99.90;;;;;;6154957;23;20013;-79
2022/01/26 08:54:07;;;;;;;90.05;42.00;;;3.70;99.90;;;;;;6155982;23;20477;-78
2022/01/26 08:56:33;;;;;;;88.63;40.80;;;3.80;99.90;;;;;;6155794;23;20053;-79
2022/01/26 08:58:59;;;;;;;84.63;41.13;;;3.70;99.90;;;;;;6155318;23;20063;-78
2022/01/26 09:01:25;;;;;;;85.78;37.92;;;3.70;99.90;;;;;;6154034;23;20346;-78
2022/01/26 09:03:50;;;;;;;79.32;38.70;;;3.70;99.90;;;;;;6156349;23;20080;-78
2022/01/26 09:06:16;;;;;;;80.45;38.63;;;3.90;99.90;;;;;;6154884;23;20025;-78
2022/01/26 09:08:44;;;;;;;80.32;39.53;;;3.80;99.90;;;;;;6157431;23;20036;-78
2022/01/26 09:11:11;;;;;;;83.22;40.65;;;3.80;99.90;;;;;;6185550;23;20017;-78
2022/01/26 09:13:36;;;;;;;77.70;39.65;;;3.80;99.90;;;;;;6186053;23;20021;-78
2022/01/26 09:16:08;;;;;;;76.97;37.38;;;3.80;99.90;;;;;;6187327;23;20088;-78
2022/01/26 09:18:50;;;;;;;75.50;37.53;;;3.80;99.90;;;;;;6160466;23;20100;-78
2022/01/26 09:21:16;;;;;;;81.50;38.33;;;3.80;99.90;;;;;;6186118;23;20037;-78
2022/01/26 09:23:42;;;;;;;74.90;37.58;;;3.80;99.90;;;;;;6187257;23;20017;-78
2022/01/26 09:26:08;;;;;;;72.78;37.22;;;3.80;99.90;;;;;;6186164;23;20052;-78
2022/01/26 09:28:34;;;;;;;77.20;37.47;;;3.90;99.90;;;;;;6186684;23;20048;-77
2022/01/26 09:31:00;;;;;;;68.88;35.92;;;3.90;99.90;;;;;;6187537;23;20016;-77
2022/01/26 09:33:26;;;;;;;79.07;38.92;;;3.90;99.90;;;;;;6185945;23;20025;-77
2022/01/26 09:35:53;;;;;;;84.50;40.95;;;3.90;99.90;;;;;;6186933;23;20064;-78
2022/01/26 09:38:18;;;;;;;80.32;38.83;;;3.90;99.90;;;;;;6160144;23;20448;-78
2022/01/26 09:40:47;;;;;;;78.25;39.08;;;4.00;99.90;;;;;;6185894;23;20021;-77
2022/01/26 09:43:14;;;;;;;76.60;37.95;;;4.00;99.90;;;;;;6186581;23;20017;-77
2022/01/26 09:45:40;;;;;;;77.18;40.00;;;4.00;99.90;;;;;;6186753;23;20017;-77
2022/01/26 09:48:06;;;;;;;85.38;41.72;;;4.00;99.90;;;;;;6185769;23;20075;-77
2022/01/26 09:50:34;;;;;;;91.10;42.65;;;4.00;99.90;;;;;;6187003;23;20005;-77
2022/01/26 09:52:59;;;;;;;81.28;39.38;;;4.00;99.90;;;;;;6187066;23;20028;-77
2022/01/26 09:55:26;;;;;;;80.70;41.25;;;4.10;99.90;;;;;;6159233;23;20025;-78
2022/01/26 09:57:58;;;;;;;89.93;42.40;;;4.10;99.90;;;;;;6160109;23;20132;-77
2022/01/26 10:00:27;;;;;;;81.15;38.75;;;4.10;99.90;;;;;;6186569;23;20467;-78
2022/01/26 10:03:11;;;;;;;86.95;42.65;;;4.10;99.90;;;;;;6185860;23;20369;-78
2022/01/26 10:05:41;;;;;;;81.60;41.65;;;4.10;99.90;;;;;;6186787;23;20375;-78
2022/01/26 10:08:38;;;;;;;88.50;42.03;;;4.10;99.90;;;;;;6186443;23;20020;-78
2022/01/26 10:19:04;;;;;;;87.32;43.70;;;4.20;99.90;;;;;;6160074;23;20025;-77
2022/01/26 10:21:30;;;;;;;88.40;40.45;;;4.20;99.90;;;;;;6186779;23;20016;-78
2022/01/26 10:24:07;;;;;;;87.35;41.30;;;4.20;99.90;;;;;;6185844;23;20017;-78
2022/01/26 10:26:33;;;;;;;89.32;43.92;;;4.20;99.90;;;;;;6186514;23;20024;-78
2022/01/26 10:29:00;;;;;;;74.03;37.85;;;4.20;99.90;;;;;;6160102;23;20056;-78
2022/01/26 10:31:34;;;;;;;82.07;41.20;;;4.20;99.90;;;;;;6185258;23;20021;-78
2022/01/26 10:34:04;;;;;;;80.00;37.90;;;4.30;99.90;;;;;;6135365;23;20056;-78
2022/01/26 10:36:37;;;;;;;79.97;37.90;;;4.30;99.90;;;;;;6158970;23;20017;-78
2022/01/26 10:39:09;;;;;;;72.85;37.40;;;4.30;99.90;;;;;;6186712;23;20083;-78
2022/01/26 10:41:37;;;;;;;70.50;35.70;;;4.30;99.90;;;;;;6186457;23;20013;-78
2022/01/26 10:44:04;;;;;;;72.82;36.47;;;4.40;99.90;;;;;;6185148;23;20468;-77
2022/01/26 10:46:35;;;;;;;71.47;35.80;;;4.40;99.90;;;;;;6186222;23;20019;-77
2022/01/26 10:49:08;;;;;;;69.80;35.22;;;4.40;99.90;;;;;;6186423;23;20096;-77
2022/01/26 10:54:37;;;;;;;78.63;35.63;;;4.70;99.90;;;;;;6159643;23;20021;-77
2022/01/26 10:57:05;;;;;;;76.22;36.50;;;4.50;99.90;;;;;;6186060;23;20013;-77
2022/01/26 10:59:36;;;;;;;79.38;38.75;;;4.50;99.90;;;;;;6185314;23;20418;-77
2022/01/26 11:02:07;;;;;;;81.65;37.95;;;4.50;99.90;;;;;;6186093;23;20493;-76
2022/01/26 11:04:34;;;;;;;84.85;40.75;;;4.60;99.90;;;;;;6185360;23;20345;-76
2022/01/26 11:07:02;;;;;;;84.88;39.50;;;4.60;99.90;;;;;;6185891;23;20013;-77
2022/01/26 11:09:31;;;;;;;81.82;38.85;;;4.60;99.90;;;;;;6186039;23;20025;-77
2022/01/26 11:12:02;;;;;;;87.28;40.10;;;4.60;99.90;;;;;;6185204;23;20108;-76
2022/01/26 11:14:38;;;;;;;85.70;40.75;;;4.60;99.90;;;;;;6185794;23;20024;-76
2022/01/26 11:17:04;;;;;;;75.25;39.30;;;4.70;99.90;;;;;;6186314;23;20013;-76
2022/01/26 11:19:44;;;;;;;76.13;38.72;;;4.60;99.90;;;;;;6185143;23;20031;-77
2022/01/26 11:22:12;;;;;;;76.88;36.03;;;4.60;99.90;;;;;;6186270;23;20067;-76
2022/01/26 11:24:43;;;;;;;83.18;36.33;;;4.60;99.90;;;;;;6186176;23;20021;-76
2022/01/26 11:27:08;;;;;;;68.15;35.63;;;4.50;99.90;;;;;;6184763;23;20095;-76
2022/01/26 11:29:37;;;;;;;70.57;34.10;;;4.50;99.90;;;;;;6185653;23;20087;-76
2022/01/26 11:32:11;;;;;;;72.63;34.83;;;4.50;99.90;;;;;;6186134;23;20341;-77
2022/01/26 11:34:38;;;;;;;69.75;34.38;;;4.50;99.90;;;;;;6185165;23;20073;-76
2022/01/26 11:37:08;;;;;;;74.15;35.28;;;4.50;99.90;;;;;;6186082;23;20017;-76
2022/01/26 11:45:35;;;;;;;70.95;33.97;;;4.50;99.90;;;;;;6186162;23;20025;-76
2022/01/26 11:48:12;;;;;;;65.05;33.42;;;4.50;99.90;;;;;;6137635;23;20025;-75
2022/01/26 11:50:42;;;;;;;78.32;35.03;;;4.50;99.90;;;;;;6159344;23;20389;-77
2022/01/26 11:53:16;;;;;;;69.40;34.88;;;4.60;99.90;;;;;;6185798;23;20048;-76
2022/01/26 11:55:42;;;;;;;71.82;35.85;;;4.60;99.90;;;;;;6184915;23;20021;-76
2022/01/26 11:58:27;;;;;;;71.85;35.80;;;4.60;99.90;;;;;;6185992;23;20092;-76
2022/01/26 12:04:01;;;;;;;73.82;35.40;;;4.60;99.90;;;;;;6159243;23;20052;-76
2022/01/26 12:06:29;;;;;;;69.07;35.67;;;4.60;99.90;;;;;;6185699;23;20055;-76
2022/01/26 12:08:58;;;;;;;74.18;34.45;;;4.60;99.90;;;;;;6158074;23;20091;-76
2022/01/26 12:11:25;;;;;;;69.93;34.58;;;4.70;99.90;;;;;;6185446;23;20087;-76
2022/01/26 12:14:02;;;;;;;71.05;34.80;;;4.70;99.90;;;;;;6158973;23;20021;-76
2022/01/26 12:16:36;;;;;;;70.88;35.65;;;4.70;99.90;;;;;;6184939;23;20013;-76
2022/01/26 12:35:38;;;;;;;72.32;32.78;;;4.90;99.90;;;;;;6185696;23;20025;-76
2022/01/26 12:38:13;;;;;;;71.57;33.88;;;4.90;99.90;;;;;;6184964;23;20021;-76
2022/01/26 12:43:48;;;;;;;71.50;33.55;;;4.90;99.90;;;;;;6186555;23;20021;-76
2022/01/26 12:46:28;;;;;;;67.22;33.80;;;4.90;99.90;;;;;;6160552;23;20445;-76
2022/01/26 12:48:58;;;;;;;66.40;32.80;;;4.90;99.90;;;;;;6187378;23;20047;-76
2022/01/26 12:51:27;;;;;;;74.97;34.08;;;4.90;99.90;;;;;;6186547;23;20333;-76
2022/01/26 12:53:59;;;;;;;71.97;33.47;;;4.90;99.90;;;;;;6187151;23;20021;-76
2022/01/26 12:56:27;;;;;;;69.03;34.13;;;5.00;99.90;;;;;;6187391;23;20055;-76
2022/01/26 12:59:11;;;;;;;63.33;30.60;;;5.00;99.90;;;;;;6186645;23;20049;-76
2022/01/26 13:01:38;;;;;;;63.13;33.20;;;5.00;99.90;;;;;;6186964;23;20051;-76
2022/01/26 13:04:06;;;;;;;74.10;34.17;;;5.00;99.90;;;;;;6186648;23;20078;-77
2022/01/26 13:06:35;;;;;;;56.58;30.23;;;5.10;99.90;;;;;;6187513;23;20020;-77
2022/01/26 13:09:25;;;;;;;70.25;32.72;;;5.10;99.90;;;;;;6187294;23;20020;-77
2022/01/26 13:11:53;;;;;;;63.00;31.13;;;5.10;99.90;;;;;;6186111;23;20017;-77
2022/01/26 13:14:26;;;;;;;71.75;32.70;;;5.20;99.90;;;;;;6187493;23;20017;-76
2022/01/26 13:30:10;;;;;;;64.38;32.30;;;5.30;99.90;;;;;;6130141;23;20049;-76
2022/01/26 13:35:39;;;;;;;61.15;30.55;;;5.30;99.90;;;;;;6186927;23;20021;-76
2022/01/26 13:40:55;;;;;;;65.78;31.45;;;5.30;99.90;;;;;;6186069;23;20032;-76
2022/01/26 13:46:47;;;;;;;60.05;31.65;;;5.30;99.90;;;;;;6187175;23;20070;-76
2022/01/26 13:49:32;;;;;;;63.00;30.52;;;5.30;99.90;;;;;;6186645;23;20079;-76
2022/01/26 13:52:16;;;;;;;61.08;31.27;;;5.30;99.90;;;;;;6187189;23;20044;-76
2022/01/26 13:59:57;;;;;;;67.30;29.93;;;5.30;99.90;;;;;;6186574;23;20028;-76
2022/01/26 14:02:25;;;;;;;63.05;30.13;;;5.30;99.90;;;;;;6186177;23;20024;-77
2022/01/26 14:04:51;;;;;;;63.75;31.25;;;5.30;99.90;;;;;;6186903;23;20052;-76
2022/01/26 14:07:17;;;;;;;58.10;30.35;;;5.30;99.90;;;;;;6185742;23;20017;-77
2022/01/26 14:09:44;;;;;;;59.15;29.02;;;5.30;99.90;;;;;;6186150;23;20024;-76
2022/01/26 14:12:13;;;;;;;58.47;28.75;;;5.30;99.90;;;;;;6159966;23;20434;-76
2022/01/26 14:14:43;;;;;;;60.47;29.85;;;5.30;99.90;;;;;;6185911;23;20026;-76
2022/01/26 14:17:15;;;;;;;58.28;29.70;;;5.30;99.90;;;;;;6160163;23;20021;-77
2022/01/26 14:23:00;;;;;;;;;;;5.30;99.90;;;;;;6159501;23;20319;-77
2022/01/26 14:25:28;;;;;;;62.53;28.23;;;5.30;99.90;;;;;;6186123;23;19926;-76
2022/01/26 14:27:58;;;;;;;60.53;30.33;;;5.30;99.90;;;;;;6186168;23;20025;-77
2022/01/26 14:30:34;;;;;;;54.00;28.60;;;5.30;99.90;;;;;;6185779;23;20091;-76
2022/01/26 14:54:50;;;;;;;56.17;29.75;;;5.60;99.90;;;;;;6186600;23;20025;-77
2022/01/26 15:35:39;;;;;;;60.67;28.00;;;5.40;99.90;;;;;;6186140;23;20240;-76
2022/01/26 15:59:34;;;;;;;64.53;28.10;;;5.50;99.90;;;;;;6185662;23;20513;-76
2022/01/26 16:07:43;;;;;;;60.30;26.63;;;5.50;99.90;;;;;;6185053;23;20100;-76
2022/01/26 17:12:19;;;;;;;44.70;23.20;;;5.70;99.90;;;;;;6186436;23;20025;-77
2022/01/26 17:26:48;;;;;;;48.38;21.73;;;5.70;99.90;;;;;;6186087;23;20395;-77
2022/01/26 18:39:45;;;;;;;37.38;18.77;;;6.00;99.90;;;;;;6186881;23;20028;-76
2022/01/26 18:50:18;;;;;;;39.50;19.75;;;6.00;99.90;;;;;;6185469;23;20249;-77
2022/01/26 18:52:44;;;;;;;39.17;18.70;;;6.00;99.90;;;;;;6185844;23;20331;-76
2022/01/26 18:55:13;;;;;;;42.25;19.42;;;6.10;99.90;;;;;;6186518;23;20021;-77
2022/01/26 18:57:39;;;;;;;40.45;19.58;;;6.10;99.90;;;;;;6185018;23;20017;-76
2022/01/26 19:00:05;;;;;;;38.20;19.15;;;6.10;99.90;;;;;;6159667;23;20044;-77
2022/01/26 19:02:31;;;;;;;37.85;19.17;;;6.10;99.90;;;;;;6159449;23;20056;-77
2022/01/26 19:04:57;;;;;;;37.17;18.58;;;6.10;99.90;;;;;;6158624;23;20017;-77
2022/01/26 19:07:24;;;;;;;38.63;19.13;;;6.10;99.90;;;;;;6160035;23;20025;-77
2022/01/26 19:09:52;;;;;;;42.95;20.27;;;6.10;99.90;;;;;;6184768;23;20155;-77
2022/01/26 19:12:20;;;;;;;40.05;18.92;;;6.10;99.90;;;;;;6186153;23;20096;-77
2022/01/26 19:14:58;;;;;;;33.03;17.83;;;6.10;99.90;;;;;;6186239;23;20382;-76
2022/01/26 19:17:30;;;;;;;32.83;18.02;;;6.10;99.90;;;;;;6185429;23;20020;-77
2022/01/26 19:25:13;;;;;;;40.53;21.20;;;6.10;99.90;;;;;;6185278;23;20173;-77
2022/01/26 19:44:39;;;;;;;42.28;18.38;;;6.20;99.90;;;;;;6185768;23;20021;-76
2022/01/26 19:47:28;;;;;;;42.45;18.63;;;6.20;99.90;;;;;;6185128;23;20395;-76
2022/01/26 19:52:35;;;;;;;44.58;20.58;;;6.40;99.90;;;;;;6184955;23;20460;-76
2022/01/26 19:55:03;;;;;;;45.72;19.05;;;6.20;99.90;;;;;;6159280;23;20092;-76
2022/01/26 19:57:29;;;;;;;45.30;20.90;;;6.20;99.90;;;;;;6184028;23;20021;-76
2022/01/26 19:59:54;;;;;;;40.00;19.52;;;6.20;99.90;;;;;;6185213;23;20044;-76
2022/01/26 20:02:20;;;;;;;40.45;18.10;;;6.20;99.90;;;;;;6186005;23;20024;-77